sensor_id;sensor_type;location;lat;lon;timestamp;P1;durP1;ratioP1;P2;durP2;ratioP2
8042;SDS011;4064;48.132;11.366;2023-12-04T00:01:14;15.13;;;11.63;;
8042;SDS011;4064;48.132;11.366;2023-12-04T00:03:40;23.10;;;14.18;;
8042;SDS011;4064;48.132;11.366;2023-12-04T00:06:07;19.10;;;14.00;;
8042;SDS011;4064;48.132;11.366;2023-12-04T00:08:35;21.25;;;14.27;;
8042;SDS011;4064;48.132;11.366;2023-12-04T00:11:01;18.42;;;14.38;;
8042;SDS011;4064;48.132;11.366;2023-12-04T00:13:26;20.00;;;15.20;;
8042;SDS011;4064;48.132;11.366;2023-12-04T00:15:52;18.10;;;13.73;;
8042;SDS011;4064;48.132;11.366;2023-12-04T00:18:18;19.47;;;15.27;;
8042;SDS011;4064;48.132;11.366;2023-12-04T00:20:44;23.93;;;15.40;;
8042;SDS011;4064;48.132;11.366;2023-12-04T00:23:09;27.07;;;14.50;;
8042;SDS011;4064;48.132;11.366;2023-12-04T00:25:35;24.00;;;16.33;;
8042;SDS011;4064;48.132;11.366;2023-12-04T00:28:00;20.67;;;15.20;;
8042;SDS011;4064;48.132;11.366;2023-12-04T00:30:26;20.40;;;13.97;;
8042;SDS011;4064;48.132;11.366;2023-12-04T00:32:52;25.93;;;16.63;;
8042;SDS011;4064;48.132;11.366;2023-12-04T00:35:18;22.00;;;14.77;;
8042;SDS011;4064;48.132;11.366;2023-12-04T00:37:44;19.42;;;13.25;;
8042;SDS011;4064;48.132;11.366;2023-12-04T00:40:09;28.53;;;17.20;;
8042;SDS011;4064;48.132;11.366;2023-12-04T00:42:35;24.47;;;17.20;;
8042;SDS011;4064;48.132;11.366;2023-12-04T00:45:02;21.80;;;17.70;;
8042;SDS011;4064;48.132;11.366;2023-12-04T00:47:28;16.95;;;14.25;;
8042;SDS011;4064;48.132;11.366;2023-12-04T00:49:54;21.77;;;15.37;;
8042;SDS011;4064;48.132;11.366;2023-12-04T00:52:19;26.27;;;15.37;;
8042;SDS011;4064;48.132;11.366;2023-12-04T00:54:45;22.87;;;15.40;;
8042;SDS011;4064;48.132;11.366;2023-12-04T00:57:11;19.90;;;13.50;;
8042;SDS011;4064;48.132;11.366;2023-12-04T00:59:37;20.63;;;14.60;;
8042;SDS011;4064;48.132;11.366;2023-12-04T01:02:02;21.80;;;14.90;;
8042;SDS011;4064;48.132;11.366;2023-12-04T01:04:29;20.33;;;16.70;;
8042;SDS011;4064;48.132;11.366;2023-12-04T01:06:56;18.88;;;14.15;;
8042;SDS011;4064;48.132;11.366;2023-12-04T01:09:21;17.53;;;14.87;;
8042;SDS011;4064;48.132;11.366;2023-12-04T01:11:50;15.77;;;12.38;;
8042;SDS011;4064;48.132;11.366;2023-12-04T01:14:19;19.73;;;12.55;;
8042;SDS011;4064;48.132;11.366;2023-12-04T01:16:48;17.70;;;11.85;;
8042;SDS011;4064;48.132;11.366;2023-12-04T01:19:14;12.85;;;10.90;;
8042;SDS011;4064;48.132;11.366;2023-12-04T01:21:39;15.40;;;11.00;;
8042;SDS011;4064;48.132;11.366;2023-12-04T01:24:05;12.77;;;10.47;;
8042;SDS011;4064;48.132;11.366;2023-12-04T01:26:31;15.00;;;11.53;;
8042;SDS011;4064;48.132;11.366;2023-12-04T01:28:57;11.85;;;10.10;;
8042;SDS011;4064;48.132;11.366;2023-12-04T01:31:23;11.00;;;9.65;;
8042;SDS011;4064;48.132;11.366;2023-12-04T01:33:49;12.80;;;11.00;;
8042;SDS011;4064;48.132;11.366;2023-12-04T01:36:14;15.70;;;9.40;;
8042;SDS011;4064;48.132;11.366;2023-12-04T01:38:40;12.33;;;10.07;;
8042;SDS011;4064;48.132;11.366;2023-12-04T01:41:06;14.77;;;10.17;;
8042;SDS011;4064;48.132;11.366;2023-12-04T01:43:32;13.75;;;9.10;;
8042;SDS011;4064;48.132;11.366;2023-12-04T01:45:58;10.50;;;8.07;;
8042;SDS011;4064;48.132;11.366;2023-12-04T01:48:26;12.77;;;10.52;;
8042;SDS011;4064;48.132;11.366;2023-12-04T01:50:53;13.13;;;10.05;;
8042;SDS011;4064;48.132;11.366;2023-12-04T01:53:19;14.33;;;10.23;;
8042;SDS011;4064;48.132;11.366;2023-12-04T01:55:45;15.33;;;10.00;;
8042;SDS011;4064;48.132;11.366;2023-12-04T01:58:11;12.20;;;9.43;;
8042;SDS011;4064;48.132;11.366;2023-12-04T02:00:37;10.63;;;9.50;;
8042;SDS011;4064;48.132;11.366;2023-12-04T02:03:03;13.80;;;8.90;;
8042;SDS011;4064;48.132;11.366;2023-12-04T02:05:29;13.25;;;9.38;;
8042;SDS011;4064;48.132;11.366;2023-12-04T02:07:55;14.45;;;8.68;;
8042;SDS011;4064;48.132;11.366;2023-12-04T02:10:21;11.00;;;9.30;;
8042;SDS011;4064;48.132;11.366;2023-12-04T02:12:48;12.88;;;9.30;;
8042;SDS011;4064;48.132;11.366;2023-12-04T02:15:15;10.35;;;7.47;;
8042;SDS011;4064;48.132;11.366;2023-12-04T02:17:42;11.68;;;8.27;;
8042;SDS011;4064;48.132;11.366;2023-12-04T02:20:09;13.45;;;10.70;;
8042;SDS011;4064;48.132;11.366;2023-12-04T02:22:37;11.40;;;10.05;;
8042;SDS011;4064;48.132;11.366;2023-12-04T02:25:03;11.30;;;8.52;;
8042;SDS011;4064;48.132;11.366;2023-12-04T02:27:51;12.45;;;10.32;;
8042;SDS011;4064;48.132;11.366;2023-12-04T02:30:18;14.40;;;11.00;;
8042;SDS011;4064;48.132;11.366;2023-12-04T02:32:46;9.95;;;8.82;;
8042;SDS011;4064;48.132;11.366;2023-12-04T02:35:14;9.73;;;8.00;;
8042;SDS011;4064;48.132;11.366;2023-12-04T02:37:43;13.20;;;10.18;;
8042;SDS011;4064;48.132;11.366;2023-12-04T02:40:10;13.82;;;8.32;;
8042;SDS011;4064;48.132;11.366;2023-12-04T02:42:37;18.33;;;9.82;;
8042;SDS011;4064;48.132;11.366;2023-12-04T02:45:03;17.30;;;10.10;;
8042;SDS011;4064;48.132;11.366;2023-12-04T02:47:29;12.95;;;10.52;;
8042;SDS011;4064;48.132;11.366;2023-12-04T02:49:54;17.30;;;11.40;;
8042;SDS011;4064;48.132;11.366;2023-12-04T02:52:20;11.10;;;8.10;;
8042;SDS011;4064;48.132;11.366;2023-12-04T02:54:46;9.80;;;8.43;;
8042;SDS011;4064;48.132;11.366;2023-12-04T02:57:11;11.97;;;10.70;;
8042;SDS011;4064;48.132;11.366;2023-12-04T02:59:37;15.20;;;9.53;;
8042;SDS011;4064;48.132;11.366;2023-12-04T03:02:03;10.33;;;9.30;;
8042;SDS011;4064;48.132;11.366;2023-12-04T03:04:29;18.53;;;10.80;;
8042;SDS011;4064;48.132;11.366;2023-12-04T03:06:55;14.07;;;9.85;;
8042;SDS011;4064;48.132;11.366;2023-12-04T03:09:21;14.33;;;10.97;;
8042;SDS011;4064;48.132;11.366;2023-12-04T03:11:47;15.90;;;10.13;;
8042;SDS011;4064;48.132;11.366;2023-12-04T03:14:13;15.35;;;8.65;;
8042;SDS011;4064;48.132;11.366;2023-12-04T03:16:39;18.50;;;12.02;;
8042;SDS011;4064;48.132;11.366;2023-12-04T03:19:05;15.40;;;10.90;;
8042;SDS011;4064;48.132;11.366;2023-12-04T03:21:30;20.13;;;11.40;;
8042;SDS011;4064;48.132;11.366;2023-12-04T03:23:56;18.67;;;9.60;;
8042;SDS011;4064;48.132;11.366;2023-12-04T03:26:22;13.03;;;9.83;;
8042;SDS011;4064;48.132;11.366;2023-12-04T03:28:48;21.03;;;12.73;;
8042;SDS011;4064;48.132;11.366;2023-12-04T03:31:14;13.10;;;11.13;;
8042;SDS011;4064;48.132;11.366;2023-12-04T03:33:39;18.33;;;11.57;;
8042;SDS011;4064;48.132;11.366;2023-12-04T03:36:05;11.60;;;9.90;;
8042;SDS011;4064;48.132;11.366;2023-12-04T03:38:31;12.52;;;11.18;;
8042;SDS011;4064;48.132;11.366;2023-12-04T03:40:57;17.57;;;13.37;;
8042;SDS011;4064;48.132;11.366;2023-12-04T03:43:23;12.00;;;10.70;;
8042;SDS011;4064;48.132;11.366;2023-12-04T03:45:49;17.93;;;12.13;;
8042;SDS011;4064;48.132;11.366;2023-12-04T03:48:14;14.03;;;12.10;;
8042;SDS011;4064;48.132;11.366;2023-12-04T03:50:40;13.90;;;10.40;;
8042;SDS011;4064;48.132;11.366;2023-12-04T03:53:06;17.30;;;12.10;;
8042;SDS011;4064;48.132;11.366;2023-12-04T03:55:31;17.20;;;12.43;;
8042;SDS011;4064;48.132;11.366;2023-12-04T03:57:57;17.30;;;12.97;;
8042;SDS011;4064;48.132;11.366;2023-12-04T04:00:24;19.08;;;15.05;;
8042;SDS011;4064;48.132;11.366;2023-12-04T04:02:50;18.90;;;12.77;;
8042;SDS011;4064;48.132;11.366;2023-12-04T04:05:16;18.87;;;14.17;;
8042;SDS011;4064;48.132;11.366;2023-12-04T04:07:41;15.82;;;12.60;;
8042;SDS011;4064;48.132;11.366;2023-12-04T04:10:07;16.20;;;13.53;;
8042;SDS011;4064;48.132;11.366;2023-12-04T04:12:33;14.32;;;12.40;;
8042;SDS011;4064;48.132;11.366;2023-12-04T04:14:59;21.63;;;14.50;;
8042;SDS011;4064;48.132;11.366;2023-12-04T04:17:25;19.13;;;15.23;;
8042;SDS011;4064;48.132;11.366;2023-12-04T04:19:51;15.93;;;12.87;;
8042;SDS011;4064;48.132;11.366;2023-12-04T04:22:18;21.10;;;14.25;;
8042;SDS011;4064;48.132;11.366;2023-12-04T04:24:44;23.15;;;16.98;;
8042;SDS011;4064;48.132;11.366;2023-12-04T04:27:10;17.50;;;15.27;;
8042;SDS011;4064;48.132;11.366;2023-12-04T04:29:35;15.20;;;13.03;;
8042;SDS011;4064;48.132;11.366;2023-12-04T04:32:01;18.57;;;15.90;;
8042;SDS011;4064;48.132;11.366;2023-12-04T04:34:27;22.70;;;14.70;;
8042;SDS011;4064;48.132;11.366;2023-12-04T04:36:53;19.87;;;13.60;;
8042;SDS011;4064;48.132;11.366;2023-12-04T04:39:18;18.23;;;13.70;;
8042;SDS011;4064;48.132;11.366;2023-12-04T04:41:44;19.07;;;14.73;;
8042;SDS011;4064;48.132;11.366;2023-12-04T04:44:10;25.33;;;16.13;;
8042;SDS011;4064;48.132;11.366;2023-12-04T04:46:36;19.40;;;16.50;;
8042;SDS011;4064;48.132;11.366;2023-12-04T04:49:01;18.80;;;13.03;;
8042;SDS011;4064;48.132;11.366;2023-12-04T04:51:31;24.15;;;15.07;;
8042;SDS011;4064;48.132;11.366;2023-12-04T04:53:57;25.10;;;14.75;;
8042;SDS011;4064;48.132;11.366;2023-12-04T04:56:23;20.23;;;15.00;;
8042;SDS011;4064;48.132;11.366;2023-12-04T04:58:49;17.07;;;14.30;;
8042;SDS011;4064;48.132;11.366;2023-12-04T05:01:14;15.87;;;14.03;;
8042;SDS011;4064;48.132;11.366;2023-12-04T05:03:40;21.37;;;13.60;;
8042;SDS011;4064;48.132;11.366;2023-12-04T05:06:06;24.77;;;12.67;;
8042;SDS011;4064;48.132;11.366;2023-12-04T05:08:32;19.98;;;14.40;;
8042;SDS011;4064;48.132;11.366;2023-12-04T05:10:58;19.17;;;13.67;;
8042;SDS011;4064;48.132;11.366;2023-12-04T05:13:24;15.47;;;12.07;;
8042;SDS011;4064;48.132;11.366;2023-12-04T05:15:49;25.60;;;17.00;;
8042;SDS011;4064;48.132;11.366;2023-12-04T05:18:15;20.73;;;14.90;;
8042;SDS011;4064;48.132;11.366;2023-12-04T05:20:41;19.33;;;12.03;;
8042;SDS011;4064;48.132;11.366;2023-12-04T05:23:06;19.47;;;14.30;;
8042;SDS011;4064;48.132;11.366;2023-12-04T05:25:32;20.20;;;15.83;;
8042;SDS011;4064;48.132;11.366;2023-12-04T05:27:58;17.53;;;12.97;;
8042;SDS011;4064;48.132;11.366;2023-12-04T05:30:23;15.80;;;12.63;;
8042;SDS011;4064;48.132;11.366;2023-12-04T05:32:49;15.50;;;11.83;;
8042;SDS011;4064;48.132;11.366;2023-12-04T05:35:15;13.97;;;12.23;;
8042;SDS011;4064;48.132;11.366;2023-12-04T05:37:44;18.60;;;12.45;;
8042;SDS011;4064;48.132;11.366;2023-12-04T05:40:11;19.67;;;14.05;;
8042;SDS011;4064;48.132;11.366;2023-12-04T05:42:37;15.98;;;12.68;;
8042;SDS011;4064;48.132;11.366;2023-12-04T05:45:03;25.00;;;14.67;;
8042;SDS011;4064;48.132;11.366;2023-12-04T05:47:33;18.50;;;13.60;;
8042;SDS011;4064;48.132;11.366;2023-12-04T05:49:59;19.83;;;13.55;;
8042;SDS011;4064;48.132;11.366;2023-12-04T05:52:25;20.43;;;12.63;;
8042;SDS011;4064;48.132;11.366;2023-12-04T05:54:51;16.33;;;13.37;;
8042;SDS011;4064;48.132;11.366;2023-12-04T05:57:16;16.43;;;14.03;;
8042;SDS011;4064;48.132;11.366;2023-12-04T05:59:42;16.13;;;12.90;;
8042;SDS011;4064;48.132;11.366;2023-12-04T06:02:07;14.60;;;13.10;;
8042;SDS011;4064;48.132;11.366;2023-12-04T06:04:33;21.27;;;14.17;;
8042;SDS011;4064;48.132;11.366;2023-12-04T06:06:59;22.03;;;14.60;;
8042;SDS011;4064;48.132;11.366;2023-12-04T06:09:24;20.47;;;14.67;;
8042;SDS011;4064;48.132;11.366;2023-12-04T06:11:50;22.93;;;14.30;;
8042;SDS011;4064;48.132;11.366;2023-12-04T06:14:15;16.57;;;13.27;;
8042;SDS011;4064;48.132;11.366;2023-12-04T06:16:41;20.27;;;16.30;;
8042;SDS011;4064;48.132;11.366;2023-12-04T06:19:06;17.87;;;15.70;;
8042;SDS011;4064;48.132;11.366;2023-12-04T06:21:32;23.43;;;17.53;;
8042;SDS011;4064;48.132;11.366;2023-12-04T06:23:58;25.47;;;17.00;;
8042;SDS011;4064;48.132;11.366;2023-12-04T06:26:24;22.58;;;17.70;;
8042;SDS011;4064;48.132;11.366;2023-12-04T06:28:50;20.90;;;18.50;;
8042;SDS011;4064;48.132;11.366;2023-12-04T06:31:16;26.10;;;16.42;;
8042;SDS011;4064;48.132;11.366;2023-12-04T06:33:42;28.63;;;19.38;;
8042;SDS011;4064;48.132;11.366;2023-12-04T06:36:08;23.73;;;15.82;;
8042;SDS011;4064;48.132;11.366;2023-12-04T06:38:38;19.80;;;14.80;;
8042;SDS011;4064;48.132;11.366;2023-12-04T06:41:05;21.52;;;15.80;;
8042;SDS011;4064;48.132;11.366;2023-12-04T06:43:31;13.80;;;12.57;;
8042;SDS011;4064;48.132;11.366;2023-12-04T06:45:58;21.02;;;15.60;;
8042;SDS011;4064;48.132;11.366;2023-12-04T06:48:24;18.17;;;14.88;;
8042;SDS011;4064;48.132;11.366;2023-12-04T06:50:50;18.80;;;14.77;;
8042;SDS011;4064;48.132;11.366;2023-12-04T06:53:16;24.60;;;16.33;;
8042;SDS011;4064;48.132;11.366;2023-12-04T06:55:41;21.50;;;16.40;;
8042;SDS011;4064;48.132;11.366;2023-12-04T06:58:07;27.13;;;17.13;;
8042;SDS011;4064;48.132;11.366;2023-12-04T07:00:32;29.07;;;15.33;;
8042;SDS011;4064;48.132;11.366;2023-12-04T07:02:58;21.20;;;14.90;;
8042;SDS011;4064;48.132;11.366;2023-12-04T07:05:24;23.10;;;14.70;;
8042;SDS011;4064;48.132;11.366;2023-12-04T07:07:49;19.67;;;14.57;;
8042;SDS011;4064;48.132;11.366;2023-12-04T07:10:15;38.63;;;22.37;;
8042;SDS011;4064;48.132;11.366;2023-12-04T07:12:41;33.13;;;20.30;;
8042;SDS011;4064;48.132;11.366;2023-12-04T07:15:07;35.65;;;19.48;;
8042;SDS011;4064;48.132;11.366;2023-12-04T07:17:34;21.15;;;15.18;;
8042;SDS011;4064;48.132;11.366;2023-12-04T07:20:03;26.90;;;17.27;;
8042;SDS011;4064;48.132;11.366;2023-12-04T07:22:32;27.25;;;19.92;;
8042;SDS011;4064;48.132;11.366;2023-12-04T07:24:58;30.08;;;16.73;;
8042;SDS011;4064;48.132;11.366;2023-12-04T07:27:23;28.13;;;17.50;;
8042;SDS011;4064;48.132;11.366;2023-12-04T07:29:49;24.23;;;16.60;;
8042;SDS011;4064;48.132;11.366;2023-12-04T07:32:16;26.23;;;14.68;;
8042;SDS011;4064;48.132;11.366;2023-12-04T07:34:43;20.83;;;15.40;;
8042;SDS011;4064;48.132;11.366;2023-12-04T07:37:08;18.60;;;13.17;;
8042;SDS011;4064;48.132;11.366;2023-12-04T07:39:34;20.13;;;16.20;;
8042;SDS011;4064;48.132;11.366;2023-12-04T07:42:00;24.23;;;16.73;;
8042;SDS011;4064;48.132;11.366;2023-12-04T07:44:25;20.60;;;16.07;;
8042;SDS011;4064;48.132;11.366;2023-12-04T07:46:51;19.77;;;14.20;;
8042;SDS011;4064;48.132;11.366;2023-12-04T07:49:17;22.57;;;16.00;;
8042;SDS011;4064;48.132;11.366;2023-12-04T07:51:42;20.17;;;16.80;;
8042;SDS011;4064;48.132;11.366;2023-12-04T07:54:11;22.50;;;15.53;;
8042;SDS011;4064;48.132;11.366;2023-12-04T07:56:39;24.90;;;16.30;;
8042;SDS011;4064;48.132;11.366;2023-12-04T07:59:05;22.50;;;14.17;;
8042;SDS011;4064;48.132;11.366;2023-12-04T08:01:30;18.33;;;13.20;;
8042;SDS011;4064;48.132;11.366;2023-12-04T08:03:56;23.30;;;14.87;;
8042;SDS011;4064;48.132;11.366;2023-12-04T08:06:21;18.93;;;13.90;;
8042;SDS011;4064;48.132;11.366;2023-12-04T08:08:47;20.23;;;12.77;;
8042;SDS011;4064;48.132;11.366;2023-12-04T08:11:13;17.00;;;11.47;;
8042;SDS011;4064;48.132;11.366;2023-12-04T08:13:39;21.83;;;13.37;;
8042;SDS011;4064;48.132;11.366;2023-12-04T08:16:05;17.52;;;14.55;;
8042;SDS011;4064;48.132;11.366;2023-12-04T08:18:37;23.85;;;14.27;;
8042;SDS011;4064;48.132;11.366;2023-12-04T08:21:03;23.60;;;15.57;;
8042;SDS011;4064;48.132;11.366;2023-12-04T08:23:29;23.03;;;16.80;;
8042;SDS011;4064;48.132;11.366;2023-12-04T08:25:55;22.53;;;17.30;;
8042;SDS011;4064;48.132;11.366;2023-12-04T08:28:20;30.17;;;17.47;;
8042;SDS011;4064;48.132;11.366;2023-12-04T08:30:46;23.20;;;17.50;;
8042;SDS011;4064;48.132;11.366;2023-12-04T08:33:12;19.40;;;14.63;;
8042;SDS011;4064;48.132;11.366;2023-12-04T08:35:38;16.43;;;12.57;;
8042;SDS011;4064;48.132;11.366;2023-12-04T08:38:03;18.63;;;13.30;;
8042;SDS011;4064;48.132;11.366;2023-12-04T08:40:29;25.30;;;15.90;;
8042;SDS011;4064;48.132;11.366;2023-12-04T08:42:54;24.00;;;15.47;;
8042;SDS011;4064;48.132;11.366;2023-12-04T08:45:20;39.83;;;19.97;;
8042;SDS011;4064;48.132;11.366;2023-12-04T08:47:45;23.93;;;17.83;;
8042;SDS011;4064;48.132;11.366;2023-12-04T08:50:11;22.87;;;16.60;;
8042;SDS011;4064;48.132;11.366;2023-12-04T08:52:37;17.00;;;13.00;;
8042;SDS011;4064;48.132;11.366;2023-12-04T08:55:03;17.47;;;14.47;;
8042;SDS011;4064;48.132;11.366;2023-12-04T08:57:31;19.42;;;15.07;;
8042;SDS011;4064;48.132;11.366;2023-12-04T08:59:56;27.97;;;15.73;;
8042;SDS011;4064;48.132;11.366;2023-12-04T09:02:22;21.97;;;16.70;;
8042;SDS011;4064;48.132;11.366;2023-12-04T09:04:47;20.00;;;17.10;;
8042;SDS011;4064;48.132;11.366;2023-12-04T09:07:13;22.57;;;15.30;;
8042;SDS011;4064;48.132;11.366;2023-12-04T09:09:39;20.33;;;16.23;;
8042;SDS011;4064;48.132;11.366;2023-12-04T09:12:05;21.37;;;14.77;;
8042;SDS011;4064;48.132;11.366;2023-12-04T09:14:32;22.27;;;15.15;;
8042;SDS011;4064;48.132;11.366;2023-12-04T09:16:58;28.40;;;19.17;;
8042;SDS011;4064;48.132;11.366;2023-12-04T09:19:23;23.80;;;20.17;;
8042;SDS011;4064;48.132;11.366;2023-12-04T09:21:49;19.53;;;16.13;;
8042;SDS011;4064;48.132;11.366;2023-12-04T09:24:15;30.33;;;19.30;;
8042;SDS011;4064;48.132;11.366;2023-12-04T09:26:40;22.43;;;16.60;;
8042;SDS011;4064;48.132;11.366;2023-12-04T09:29:06;23.83;;;15.60;;
8042;SDS011;4064;48.132;11.366;2023-12-04T09:31:31;20.10;;;16.07;;
8042;SDS011;4064;48.132;11.366;2023-12-04T09:33:57;18.53;;;13.23;;
8042;SDS011;4064;48.132;11.366;2023-12-04T09:36:22;20.33;;;14.77;;
8042;SDS011;4064;48.132;11.366;2023-12-04T09:38:48;18.47;;;13.73;;
8042;SDS011;4064;48.132;11.366;2023-12-04T09:41:14;17.60;;;14.60;;
8042;SDS011;4064;48.132;11.366;2023-12-04T09:43:41;26.45;;;16.60;;
8042;SDS011;4064;48.132;11.366;2023-12-04T09:46:07;20.80;;;15.10;;
8042;SDS011;4064;48.132;11.366;2023-12-04T09:48:34;25.88;;;19.13;;
8042;SDS011;4064;48.132;11.366;2023-12-04T09:51:01;38.08;;;23.08;;
8042;SDS011;4064;48.132;11.366;2023-12-04T09:53:28;21.77;;;17.05;;
8042;SDS011;4064;48.132;11.366;2023-12-04T09:55:55;22.95;;;16.45;;
8042;SDS011;4064;48.132;11.366;2023-12-04T09:58:24;20.20;;;16.05;;
8042;SDS011;4064;48.132;11.366;2023-12-04T10:00:56;23.90;;;14.55;;
8042;SDS011;4064;48.132;11.366;2023-12-04T10:03:23;18.30;;;13.95;;
8042;SDS011;4064;48.132;11.366;2023-12-04T10:05:50;23.23;;;16.02;;
8042;SDS011;4064;48.132;11.366;2023-12-04T10:08:16;21.48;;;16.40;;
8042;SDS011;4064;48.132;11.366;2023-12-04T10:10:42;20.00;;;15.03;;
8042;SDS011;4064;48.132;11.366;2023-12-04T10:13:08;21.73;;;16.13;;
8042;SDS011;4064;48.132;11.366;2023-12-04T10:15:34;21.50;;;15.47;;
8042;SDS011;4064;48.132;11.366;2023-12-04T10:18:23;22.30;;;15.50;;
8042;SDS011;4064;48.132;11.366;2023-12-04T10:20:53;29.25;;;17.60;;
8042;SDS011;4064;48.132;11.366;2023-12-04T10:23:20;35.25;;;19.33;;
8042;SDS011;4064;48.132;11.366;2023-12-04T10:25:46;28.30;;;20.25;;
8042;SDS011;4064;48.132;11.366;2023-12-04T10:28:17;33.20;;;21.55;;
8042;SDS011;4064;48.132;11.366;2023-12-04T10:30:44;29.35;;;19.95;;
8042;SDS011;4064;48.132;11.366;2023-12-04T10:33:10;27.23;;;19.90;;
8042;SDS011;4064;48.132;11.366;2023-12-04T10:35:37;22.88;;;19.65;;
8042;SDS011;4064;48.132;11.366;2023-12-04T10:38:03;23.45;;;17.88;;
8042;SDS011;4064;48.132;11.366;2023-12-04T10:40:33;21.10;;;15.43;;
8042;SDS011;4064;48.132;11.366;2023-12-04T10:43:09;20.77;;;15.00;;
8042;SDS011;4064;48.132;11.366;2023-12-04T10:45:36;10.10;;;9.02;;
8042;SDS011;4064;48.132;11.366;2023-12-04T10:48:03;11.35;;;10.10;;
8042;SDS011;4064;48.132;11.366;2023-12-04T10:50:31;13.90;;;10.10;;
8042;SDS011;4064;48.132;11.366;2023-12-04T10:53:03;13.40;;;11.20;;
8042;SDS011;4064;48.132;11.366;2023-12-04T10:55:33;16.25;;;12.65;;
8042;SDS011;4064;48.132;11.366;2023-12-04T10:57:59;20.83;;;11.35;;
8042;SDS011;4064;48.132;11.366;2023-12-04T11:00:28;13.80;;;12.05;;
8042;SDS011;4064;48.132;11.366;2023-12-04T11:02:57;27.25;;;21.10;;
8042;SDS011;4064;48.132;11.366;2023-12-04T11:05:29;32.08;;;20.88;;
8042;SDS011;4064;48.132;11.366;2023-12-04T11:07:58;29.75;;;23.13;;
8042;SDS011;4064;48.132;11.366;2023-12-04T11:10:27;36.95;;;23.85;;
8042;SDS011;4064;48.132;11.366;2023-12-04T11:12:57;30.00;;;22.38;;
8042;SDS011;4064;48.132;11.366;2023-12-04T11:15:29;27.42;;;23.33;;
8042;SDS011;4064;48.132;11.366;2023-12-04T11:17:58;31.23;;;24.33;;
8042;SDS011;4064;48.132;11.366;2023-12-04T11:20:29;28.30;;;21.80;;
8042;SDS011;4064;48.132;11.366;2023-12-04T11:23:01;30.48;;;23.95;;
8042;SDS011;4064;48.132;11.366;2023-12-04T11:25:31;38.75;;;25.23;;
8042;SDS011;4064;48.132;11.366;2023-12-04T11:27:59;33.35;;;24.58;;
8042;SDS011;4064;48.132;11.366;2023-12-04T11:30:26;35.08;;;23.27;;
8042;SDS011;4064;48.132;11.366;2023-12-04T11:32:54;59.03;;;32.58;;
8042;SDS011;4064;48.132;11.366;2023-12-04T11:35:22;54.42;;;32.92;;
8042;SDS011;4064;48.132;11.366;2023-12-04T11:37:51;45.80;;;30.45;;
8042;SDS011;4064;48.132;11.366;2023-12-04T11:40:18;41.78;;;26.65;;
8042;SDS011;4064;48.132;11.366;2023-12-04T11:42:44;35.38;;;26.13;;
8042;SDS011;4064;48.132;11.366;2023-12-04T11:45:10;34.00;;;21.83;;
8042;SDS011;4064;48.132;11.366;2023-12-04T11:47:49;35.17;;;22.85;;
8042;SDS011;4064;48.132;11.366;2023-12-04T11:50:17;33.83;;;22.40;;
8042;SDS011;4064;48.132;11.366;2023-12-04T11:52:44;31.20;;;23.10;;
8042;SDS011;4064;48.132;11.366;2023-12-04T11:55:10;35.70;;;24.20;;
8042;SDS011;4064;48.132;11.366;2023-12-04T11:57:39;27.63;;;19.17;;
8042;SDS011;4064;48.132;11.366;2023-12-04T12:00:08;30.77;;;19.58;;
8042;SDS011;4064;48.132;11.366;2023-12-04T12:05:20;29.52;;;20.65;;
8042;SDS011;4064;48.132;11.366;2023-12-04T12:07:47;34.15;;;22.45;;
8042;SDS011;4064;48.132;11.366;2023-12-04T12:10:14;27.08;;;19.90;;
8042;SDS011;4064;48.132;11.366;2023-12-04T12:12:44;26.27;;;18.42;;
8042;SDS011;4064;48.132;11.366;2023-12-04T12:15:10;37.13;;;23.70;;
8042;SDS011;4064;48.132;11.366;2023-12-04T12:17:40;29.15;;;20.38;;
8042;SDS011;4064;48.132;11.366;2023-12-04T12:20:07;31.63;;;20.33;;
8042;SDS011;4064;48.132;11.366;2023-12-04T12:22:34;28.55;;;22.00;;
8042;SDS011;4064;48.132;11.366;2023-12-04T12:25:01;26.02;;;19.33;;
8042;SDS011;4064;48.132;11.366;2023-12-04T12:27:29;24.15;;;19.35;;
8042;SDS011;4064;48.132;11.366;2023-12-04T12:29:55;30.03;;;21.13;;
8042;SDS011;4064;48.132;11.366;2023-12-04T12:32:21;31.97;;;20.73;;
8042;SDS011;4064;48.132;11.366;2023-12-04T12:34:47;26.33;;;19.23;;
8042;SDS011;4064;48.132;11.366;2023-12-04T12:37:12;26.93;;;20.60;;
8042;SDS011;4064;48.132;11.366;2023-12-04T12:39:38;29.33;;;19.63;;
8042;SDS011;4064;48.132;11.366;2023-12-04T12:42:05;28.67;;;21.73;;
8042;SDS011;4064;48.132;11.366;2023-12-04T12:44:37;32.97;;;20.87;;
8042;SDS011;4064;48.132;11.366;2023-12-04T12:47:05;30.52;;;21.58;;
8042;SDS011;4064;48.132;11.366;2023-12-04T12:49:32;27.92;;;22.27;;
8042;SDS011;4064;48.132;11.366;2023-12-04T12:51:59;26.23;;;20.40;;
8042;SDS011;4064;48.132;11.366;2023-12-04T12:54:25;31.38;;;21.40;;
8042;SDS011;4064;48.132;11.366;2023-12-04T12:56:51;29.83;;;21.97;;
8042;SDS011;4064;48.132;11.366;2023-12-04T12:59:17;27.10;;;19.27;;
8042;SDS011;4064;48.132;11.366;2023-12-04T13:01:48;28.17;;;20.40;;
8042;SDS011;4064;48.132;11.366;2023-12-04T13:04:14;32.00;;;23.95;;
8042;SDS011;4064;48.132;11.366;2023-12-04T13:06:42;27.85;;;22.10;;
8042;SDS011;4064;48.132;11.366;2023-12-04T13:09:08;31.63;;;23.07;;
8042;SDS011;4064;48.132;11.366;2023-12-04T13:11:34;27.30;;;22.10;;
8042;SDS011;4064;48.132;11.366;2023-12-04T13:14:00;33.80;;;21.83;;
8042;SDS011;4064;48.132;11.366;2023-12-04T13:16:26;28.08;;;20.58;;
8042;SDS011;4064;48.132;11.366;2023-12-04T13:18:52;35.10;;;22.33;;
8042;SDS011;4064;48.132;11.366;2023-12-04T13:21:18;28.90;;;22.87;;
8042;SDS011;4064;48.132;11.366;2023-12-04T13:23:43;35.00;;;24.00;;
8042;SDS011;4064;48.132;11.366;2023-12-04T13:26:09;27.23;;;21.50;;
8042;SDS011;4064;48.132;11.366;2023-12-04T13:28:36;30.23;;;21.73;;
8042;SDS011;4064;48.132;11.366;2023-12-04T13:31:03;29.88;;;21.30;;
8042;SDS011;4064;48.132;11.366;2023-12-04T13:33:29;28.08;;;21.40;;
8042;SDS011;4064;48.132;11.366;2023-12-04T13:35:56;24.10;;;19.08;;
8042;SDS011;4064;48.132;11.366;2023-12-04T13:38:22;29.97;;;20.03;;
8042;SDS011;4064;48.132;11.366;2023-12-04T13:40:48;28.20;;;20.03;;
8042;SDS011;4064;48.132;11.366;2023-12-04T13:43:27;25.13;;;17.70;;
8042;SDS011;4064;48.132;11.366;2023-12-04T13:46:12;24.73;;;19.48;;
8042;SDS011;4064;48.132;11.366;2023-12-04T13:48:38;26.67;;;19.17;;
8042;SDS011;4064;48.132;11.366;2023-12-04T13:51:09;28.00;;;20.10;;
8042;SDS011;4064;48.132;11.366;2023-12-04T13:53:36;26.02;;;22.00;;
8042;SDS011;4064;48.132;11.366;2023-12-04T13:56:07;23.92;;;17.65;;
8042;SDS011;4064;48.132;11.366;2023-12-04T13:58:45;27.13;;;18.65;;
8042;SDS011;4064;48.132;11.366;2023-12-04T14:01:21;26.15;;;19.60;;
8042;SDS011;4064;48.132;11.366;2023-12-04T14:03:49;21.65;;;18.35;;
8042;SDS011;4064;48.132;11.366;2023-12-04T14:06:16;28.08;;;22.65;;
8042;SDS011;4064;48.132;11.366;2023-12-04T14:08:42;27.83;;;20.90;;
8042;SDS011;4064;48.132;11.366;2023-12-04T14:11:07;25.93;;;20.87;;
8042;SDS011;4064;48.132;11.366;2023-12-04T14:13:36;33.47;;;22.65;;
8042;SDS011;4064;48.132;11.366;2023-12-04T14:16:02;36.33;;;22.05;;
8042;SDS011;4064;48.132;11.366;2023-12-04T14:18:28;34.07;;;23.57;;
8042;SDS011;4064;48.132;11.366;2023-12-04T14:20:55;34.92;;;25.83;;
8042;SDS011;4064;48.132;11.366;2023-12-04T14:23:22;35.45;;;22.80;;
8042;SDS011;4064;48.132;11.366;2023-12-04T14:25:47;33.08;;;25.17;;
8042;SDS011;4064;48.132;11.366;2023-12-04T14:28:13;29.07;;;22.93;;
8042;SDS011;4064;48.132;11.366;2023-12-04T14:30:39;27.73;;;24.20;;
8042;SDS011;4064;48.132;11.366;2023-12-04T14:33:05;38.17;;;24.45;;
8042;SDS011;4064;48.132;11.366;2023-12-04T14:35:31;40.15;;;25.65;;